Worth, IL (60482)

4:31 PM CDT on July 31, 2015 (GMT -0500)
Southwest Ball Hockey | | Change Station
CLOSE
Current Station
Personal Weather Station
Location: Alsip, IL
Elevation: 617 ft
Nearby Weather Stations

Elev 617 ft 41.68 °N, 87.76 °W | Updated 27 seconds ago

Clear
Clear
86.5 °F
Feels Like 84 °F
N
6.9
Wind Variable Wind from ESE
Gusts 16.0 mph

Today
High -- | Low -- °F
--% Chance of Precip.
Yesterday
High -- | Low -- °F
Precip. -- in
5:44 AM 8:10 PM
Full, 100% visible
Pressure 29.90 in
Visibility 10.0 miles
Clouds Few 8000 ft
Heat Index 84 °F
Dew Point 52 °F
Humidity 31%
Rainfall 0.00 in
Snow Depth Not available.
UV 6 out of 12
Pollen 8.00 out of 12
Air Quality Not available.
Flu Activity Not available.
METAR KMDW 312053Z 30016G26KT 10SM FEW080 32/09 A2994 RMK AO2 PK WND 30031/2015 SLP125 T03170089 56012

More Conditions Fewer Conditions

Pressure 29.90 in
Visibility 10.0 miles
Clouds Few 8000 ft
Heat Index 84 °F
Dew Point 52 °F
Humidity 31%
Rainfall 0.00 in
Snow Depth Not available.
UV 6 out of 12
Pollen 8.00 out of 12
Air Quality Not available.
Flu Activity Not available.
METAR KMDW 312053Z 30016G26KT 10SM FEW080 32/09 A2994 RMK AO2 PK WND 30031/2015 SLP125 T03170089 56012

More Conditions Fewer Conditions

10-Day Weather Forecast

×

Almanac

Astronomy

Jul. 31, 2015 Rise Set
Actual Time
Civil Twilight
Nautical Twilight
Astronomical Twilight
Moon
Length of Visible Light
Length of Day
Tomorrow will be .
, % of the Moon is Illuminated

Today's Extremes

State Highs State Lows

Community

WunderPhotos

Upload Photos

1,842,754 photos uploaded!

WunderBlogs® & News

Nearby

Air Quality

  Air Quality AQ Index Pollutant
Not available.

Snow Depth

Station Depth Elevation

Earthquake Activity

City Distance Mag. Time & Date
Minimum magnitude displayed is 2.5.

Coastal Water Temperatures

Place Temperature

Stations

Nearby Weather Stations

Station Location Temp. Windchill Dew Point Humidity Wind Precip. Elev Updated Type